This is the latest recevied weather packets stored in our database for station/object KG5MMT-15. If no packets are shown the sender has not sent any weather packets the latest 1 day(s).
| Time | Temp. | Humidity | Pressure | Rain* | Wind** | Luminosity | Snow |
|---|---|---|---|---|---|---|---|
| 1836274755 | 12.78° C | 80% | 0 hPa | 0 mm | 0 m/s | - | - |
| 1836274455 | 12.78° C | 79% | 0 hPa | 0 mm | 0 m/s | - | - |
| 1836274305 | 12.78° C | 79% | 0 hPa | 0 mm | 0 m/s | - | - |
| 1836274155 | 12.78° C | 78% | 0 hPa | 0 mm | 0 m/s | - | - |
| 1778041336 | 8.33° C | 66% | 0 hPa | 0.25 mm | 3.13 m/s, 340° | - | - |
| 1778041036 | 7.78° C | 67% | 0 hPa | 0.25 mm | 3.58 m/s, 329° | - | - |
| 1778040736 | 7.78° C | 67% | 0 hPa | 0.25 mm | 3.13 m/s, 329° | - | - |
| 1778040436 | 7.78° C | 69% | 0 hPa | 0.25 mm | 4.02 m/s, 317° | - | - |
| 1778040136 | 7.78° C | 70% | 0 hPa | 0.25 mm | 0.89 m/s, 331° | - | - |
| 1778039836 | 7.78° C | 71% | 0 hPa | 0.25 mm | 1.34 m/s, 316° | - | - |
| 1778039536 | 7.22° C | 75% | 0 hPa | 0.25 mm | 0 m/s | - | - |
| 1778039236 | 7.22° C | 76% | 0 hPa | 0.25 mm | 1.34 m/s, 322° | - | - |
| 1778038936 | 7.78° C | 77% | 0 hPa | 0.25 mm | 0 m/s | - | - |
| 1778038636 | 7.78° C | 74% | 0 hPa | 0.25 mm | 2.24 m/s, 319° | - | - |
| 1778038336 | 8.33° C | 71% | 0 hPa | 0 mm | 3.13 m/s, 274° | - | - |
| 1778038036 | 8.33° C | 67% | 0 hPa | 0 mm | 0.89 m/s, 265° | - | - |
| 1778037736 | 9.44° C | 60% | 0 hPa | 0 mm | 5.36 m/s, 316° | - | - |
| 1778037436 | 10° C | 59% | 0 hPa | 0 mm | 0.45 m/s, 293° | - | - |
| 1778037136 | 10° C | 57% | 0 hPa | 0 mm | 0.89 m/s, 164° | - | - |
| 1778036836 | 10° C | 56% | 0 hPa | 0 mm | 0 m/s | - | - |
| 1778036536 | 10° C | 57% | 0 hPa | 0 mm | 0.45 m/s, 330° | - | - |
| 1778036236 | 10° C | 57% | 0 hPa | 0 mm | 0 m/s | - | - |
| 1778035936 | 10° C | 58% | 0 hPa | 0 mm | 0 m/s | - | - |
| 1778035636 | 9.44° C | 59% | 0 hPa | 0 mm | 1.34 m/s, 291° | - | - |
| 1778035336 | 10° C | 59% | 0 hPa | 0 mm | 1.79 m/s, 302° | - | - |
* Rain latest hour (hover to see other rain measurements)
** Current wind speed in m/s (hover to see current wind gust speed)